createdAt,value
2022-07-31T00:02:13.791Z,78.20
2022-07-31T00:04:45.760Z,79.30
2022-07-31T00:07:17.981Z,79.60
2022-07-31T00:09:54.046Z,79.20
2022-07-31T00:12:27.106Z,78.90
2022-07-31T00:14:59.110Z,79.00
2022-07-31T00:17:33.291Z,79.00
2022-07-31T00:20:06.899Z,79.10
2022-07-31T00:22:42.170Z,79.00
2022-07-31T00:25:17.036Z,79.80
2022-07-31T00:27:50.089Z,81.70
2022-07-31T00:30:22.269Z,81.20
2022-07-31T00:32:54.903Z,81.70
2022-07-31T00:35:27.435Z,83.10
2022-07-31T00:38:25.593Z,81.20
2022-07-31T00:40:51.747Z,81.20
2022-07-31T00:43:23.867Z,80.60
2022-07-31T00:45:59.736Z,81.00
2022-07-31T00:48:31.752Z,80.70
2022-07-31T00:51:06.292Z,80.90
2022-07-31T00:53:38.330Z,83.40
2022-07-31T00:56:10.460Z,81.60
2022-07-31T00:58:42.396Z,82.70
2022-07-31T01:01:14.558Z,81.60
2022-07-31T01:03:46.834Z,83.80
2022-07-31T01:06:19.676Z,82.40
2022-07-31T01:08:51.718Z,82.90
2022-07-31T01:11:36.979Z,82.40
2022-07-31T01:14:35.652Z,82.50
2022-07-31T01:17:13.801Z,85.10
2022-07-31T01:19:49.803Z,88.30
2022-07-31T01:22:33.949Z,84.70
2022-07-31T01:25:45.167Z,84.10
2022-07-31T01:28:52.558Z,84.80
2022-07-31T01:32:10.251Z,84.60
2022-07-31T01:35:22.327Z,84.10
2022-07-31T01:38:17.207Z,83.90
2022-07-31T01:41:04.357Z,84.00
2022-07-31T01:43:44.219Z,85.30
2022-07-31T01:46:21.193Z,84.00
2022-07-31T01:48:56.337Z,87.20
2022-07-31T01:51:29.656Z,85.50
2022-07-31T01:54:03.326Z,85.80
2022-07-31T01:56:36.561Z,87.30
2022-07-31T01:59:15.581Z,87.50
2022-07-31T02:01:57.231Z,86.00
2022-07-31T02:04:30.819Z,85.50
2022-07-31T02:07:08.078Z,86.60
2022-07-31T02:09:52.359Z,86.10
2022-07-31T02:15:51.673Z,86.80
2022-07-31T02:18:25.788Z,86.00
2022-07-31T02:20:58.215Z,86.20
2022-07-31T02:23:30.364Z,86.90
2022-07-31T02:26:03.999Z,86.50
2022-07-31T02:28:42.337Z,87.10
2022-07-31T02:31:16.948Z,86.80
2022-07-31T02:33:51.037Z,87.10
2022-07-31T02:36:24.977Z,88.10
2022-07-31T02:39:00.529Z,88.80
2022-07-31T02:41:33.159Z,89.00
2022-07-31T02:44:06.751Z,88.90
2022-07-31T02:46:44.822Z,90.20
2022-07-31T02:49:17.675Z,90.70
2022-07-31T02:51:50.868Z,91.10
2022-07-31T02:54:30.317Z,90.40
2022-07-31T02:57:04.876Z,90.60
2022-07-31T02:59:38.152Z,91.20
2022-07-31T03:02:10.960Z,92.90
2022-07-31T03:04:44.043Z,91.90
2022-07-31T03:07:17.602Z,91.30
2022-07-31T03:09:49.634Z,91.30
2022-07-31T03:12:21.590Z,91.30
2022-07-31T03:14:57.695Z,91.90
2022-07-31T03:17:38.084Z,91.90
2022-07-31T03:20:12.406Z,91.30
2022-07-31T03:22:49.551Z,91.40
2022-07-31T03:25:22.397Z,91.40
2022-07-31T03:27:55.980Z,93.00
2022-07-31T03:30:30.956Z,93.00
2022-07-31T03:33:03.603Z,93.90
2022-07-31T03:35:39.219Z,93.50
2022-07-31T03:38:39.548Z,93.20
2022-07-31T03:41:06.557Z,93.50
2022-07-31T03:43:44.131Z,93.20
2022-07-31T03:46:24.017Z,93.00
2022-07-31T03:48:56.619Z,92.80
2022-07-31T03:51:29.477Z,92.90
2022-07-31T03:54:02.123Z,95.00
2022-07-31T03:56:35.930Z,94.00
2022-07-31T03:59:09.109Z,94.10
2022-07-31T04:01:57.704Z,94.10
2022-07-31T04:04:31.535Z,94.00
2022-07-31T04:07:05.097Z,93.90
2022-07-31T04:09:38.539Z,94.80
2022-07-31T04:12:10.599Z,94.40
2022-07-31T04:14:42.880Z,94.60
2022-07-31T04:17:15.079Z,94.30
2022-07-31T04:19:47.229Z,94.40
2022-07-31T04:22:20.420Z,94.50
2022-07-31T04:24:52.676Z,94.80
2022-07-31T04:27:24.682Z,94.70
2022-07-31T04:29:57.764Z,96.70
2022-07-31T04:32:29.701Z,96.10
2022-07-31T04:35:03.004Z,96.00
2022-07-31T04:37:36.282Z,96.60
2022-07-31T04:40:10.736Z,95.80
2022-07-31T04:42:42.941Z,95.70
2022-07-31T04:45:15.012Z,96.00
2022-07-31T04:47:47.229Z,95.60
2022-07-31T04:50:19.264Z,96.30
2022-07-31T04:52:51.340Z,95.80
2022-07-31T04:55:24.296Z,95.80
2022-07-31T04:57:56.562Z,95.80
2022-07-31T05:00:28.668Z,96.00
2022-07-31T05:03:00.753Z,97.10
2022-07-31T05:05:32.728Z,97.30
2022-07-31T05:08:04.855Z,97.00
2022-07-31T05:10:55.269Z,97.60
2022-07-31T05:13:47.262Z,97.90
2022-07-31T05:16:22.510Z,98.10
2022-07-31T05:18:56.009Z,98.40
2022-07-31T05:21:30.566Z,99.40
2022-07-31T05:24:03.107Z,99.90
2022-07-31T05:26:35.767Z,99.90
2022-07-31T05:29:08.162Z,99.90
2022-07-31T05:31:59.601Z,99.90
2022-07-31T05:34:32.894Z,99.90
2022-07-31T05:37:04.939Z,99.80
2022-07-31T05:39:36.941Z,99.90
2022-07-31T05:42:09.027Z,99.90
2022-07-31T05:44:41.086Z,99.90
2022-07-31T05:47:13.043Z,99.90
2022-07-31T05:49:44.988Z,99.90
2022-07-31T05:52:20.079Z,99.90
2022-07-31T05:54:52.054Z,99.90
2022-07-31T05:57:33.097Z,99.90
2022-07-31T06:00:06.938Z,99.90
2022-07-31T06:02:42.369Z,99.90
2022-07-31T06:05:14.469Z,99.90
2022-07-31T06:07:51.087Z,99.90
2022-07-31T06:10:25.132Z,99.90
2022-07-31T06:12:58.136Z,99.90
2022-07-31T06:15:34.404Z,99.90
2022-07-31T06:18:08.713Z,99.60
2022-07-31T06:20:40.882Z,99.70
2022-07-31T06:23:28.704Z,99.80
2022-07-31T06:26:04.950Z,99.30
2022-07-31T06:28:47.599Z,99.90
2022-07-31T06:31:22.207Z,99.70
2022-07-31T06:33:54.351Z,99.90
2022-07-31T06:36:26.414Z,99.40
2022-07-31T06:38:58.691Z,99.10
2022-07-31T06:41:49.099Z,98.90
2022-07-31T06:44:21.149Z,98.10
2022-07-31T06:47:01.383Z,98.50
2022-07-31T06:49:33.560Z,97.90
2022-07-31T06:52:06.089Z,97.40
2022-07-31T06:54:38.420Z,97.80
2022-07-31T06:57:11.266Z,96.70
2022-07-31T06:59:43.709Z,97.10
2022-07-31T07:02:15.958Z,97.00
2022-07-31T07:05:04.342Z,96.80
2022-07-31T07:07:38.834Z,96.90
2022-07-31T07:10:10.883Z,96.80
2022-07-31T07:12:42.932Z,95.80
2022-07-31T07:15:15.889Z,96.40
2022-07-31T07:17:51.746Z,95.80
2022-07-31T07:20:24.024Z,96.00
2022-07-31T07:22:56.043Z,96.20
2022-07-31T07:25:28.874Z,95.40
2022-07-31T07:28:00.941Z,94.70
2022-07-31T07:30:33.271Z,94.10
2022-07-31T07:33:06.073Z,94.70
2022-07-31T07:35:38.634Z,93.90
2022-07-31T07:38:11.754Z,93.30
2022-07-31T07:40:44.469Z,93.30
2022-07-31T07:43:16.544Z,92.60
2022-07-31T07:45:49.051Z,92.30
2022-07-31T07:48:21.351Z,92.30
2022-07-31T07:50:53.396Z,90.70
2022-07-31T07:53:25.795Z,90.60
2022-07-31T07:55:58.889Z,91.00
2022-07-31T07:58:32.328Z,90.50
2022-07-31T08:01:04.383Z,89.30
2022-07-31T08:03:51.177Z,88.60
2022-07-31T08:06:23.771Z,86.70
2022-07-31T08:09:10.155Z,88.00
2022-07-31T08:11:42.243Z,86.00
2022-07-31T08:14:15.270Z,89.30
2022-07-31T08:16:47.407Z,88.00
2022-07-31T08:19:22.574Z,84.80
2022-07-31T08:21:54.703Z,84.90
2022-07-31T08:24:26.733Z,84.00
2022-07-31T08:27:17.294Z,83.60
2022-07-31T08:30:00.280Z,86.40
2022-07-31T08:32:32.753Z,85.60
2022-07-31T08:35:12.439Z,84.30
2022-07-31T08:37:57.552Z,84.00
2022-07-31T08:40:43.398Z,82.40
2022-07-31T08:44:00.219Z,79.80
2022-07-31T08:46:09.120Z,74.70
2022-07-31T08:48:45.424Z,73.10
2022-07-31T08:51:18.463Z,73.10
2022-07-31T08:53:54.044Z,73.20
2022-07-31T08:56:28.762Z,69.30
2022-07-31T08:59:01.994Z,70.20
2022-07-31T09:01:37.467Z,68.80
2022-07-31T09:04:09.468Z,68.90
2022-07-31T09:06:41.870Z,66.80
2022-07-31T09:09:17.170Z,69.30
2022-07-31T09:11:50.956Z,67.80
2022-07-31T09:14:28.158Z,69.60
2022-07-31T09:17:04.861Z,67.00
2022-07-31T09:19:52.957Z,67.70
2022-07-31T09:22:29.193Z,70.40
2022-07-31T09:25:18.730Z,66.60
2022-07-31T09:28:01.985Z,66.40
2022-07-31T09:30:56.011Z,64.10
2022-07-31T09:33:31.742Z,64.80
2022-07-31T09:36:08.214Z,62.60
2022-07-31T09:38:42.925Z,63.50
2022-07-31T09:41:52.407Z,61.60
2022-07-31T09:44:26.061Z,61.90
2022-07-31T09:47:32.422Z,61.70
2022-07-31T09:50:05.920Z,62.90
2022-07-31T09:52:38.664Z,62.10
2022-07-31T09:55:17.100Z,61.60
2022-07-31T09:57:54.807Z,62.50
2022-07-31T10:00:29.218Z,60.60
2022-07-31T10:03:02.590Z,58.60
2022-07-31T10:05:36.962Z,59.40
2022-07-31T10:08:11.963Z,59.60
2022-07-31T10:10:45.959Z,60.60
2022-07-31T10:13:21.112Z,60.90
2022-07-31T10:15:57.097Z,62.10
2022-07-31T10:18:36.216Z,57.90
2022-07-31T10:21:17.016Z,58.90
2022-07-31T10:23:49.728Z,59.00
2022-07-31T10:26:34.289Z,62.00
2022-07-31T10:29:17.908Z,59.10
2022-07-31T10:31:50.953Z,57.50
2022-07-31T10:34:24.055Z,57.70
2022-07-31T10:37:03.595Z,57.60
2022-07-31T10:40:06.783Z,59.30
2022-07-31T10:42:55.405Z,57.40
2022-07-31T10:46:02.537Z,59.80
2022-07-31T10:48:34.956Z,59.50
2022-07-31T10:51:09.969Z,58.80
2022-07-31T10:54:03.704Z,58.20
2022-07-31T10:56:44.546Z,58.70
2022-07-31T10:59:28.278Z,58.80
2022-07-31T11:02:01.010Z,58.90
2022-07-31T11:04:33.293Z,60.20
2022-07-31T11:07:19.987Z,57.40
2022-07-31T11:09:53.824Z,58.60
2022-07-31T11:12:26.020Z,58.80
2022-07-31T11:14:58.222Z,58.30
2022-07-31T11:18:23.629Z,57.50
2022-07-31T11:20:31.223Z,59.40
2022-07-31T11:23:08.522Z,57.60
2022-07-31T11:25:41.667Z,58.60
2022-07-31T11:28:23.624Z,61.00
2022-07-31T11:30:58.464Z,59.60
2022-07-31T11:33:41.761Z,59.90
2022-07-31T11:36:21.968Z,58.00
2022-07-31T11:38:56.454Z,58.50
2022-07-31T11:41:30.119Z,57.80
2022-07-31T11:44:11.366Z,58.50
2022-07-31T11:46:43.482Z,57.60
2022-07-31T11:49:22.309Z,57.20
2022-07-31T11:52:30.990Z,55.40
2022-07-31T11:55:11.204Z,56.40
2022-07-31T11:57:51.403Z,55.60
2022-07-31T12:00:29.000Z,55.80
2022-07-31T12:03:02.445Z,55.40
2022-07-31T12:05:44.134Z,56.20
2022-07-31T12:08:18.668Z,56.10
2022-07-31T12:10:56.218Z,56.20
2022-07-31T12:13:30.491Z,56.80
2022-07-31T12:16:12.429Z,57.00
2022-07-31T12:18:56.981Z,55.20
2022-07-31T12:21:35.829Z,55.60
2022-07-31T12:24:14.344Z,54.60
2022-07-31T12:26:52.085Z,54.60
2022-07-31T12:29:32.785Z,55.40
2022-07-31T12:32:07.135Z,55.00
2022-07-31T12:34:41.434Z,56.20
2022-07-31T12:37:16.766Z,55.80
2022-07-31T12:40:00.067Z,55.20
2022-07-31T12:42:41.205Z,54.70
2022-07-31T12:45:18.145Z,55.10
2022-07-31T12:48:08.742Z,55.40
2022-07-31T12:50:40.735Z,55.90
2022-07-31T12:53:12.820Z,53.00
2022-07-31T12:55:44.914Z,54.00
2022-07-31T12:58:17.001Z,51.40
2022-07-31T13:00:49.150Z,50.20
2022-07-31T13:03:22.727Z,49.70
2022-07-31T13:05:56.304Z,50.90
2022-07-31T13:08:29.365Z,52.30
2022-07-31T13:11:05.218Z,53.40
2022-07-31T13:13:37.220Z,54.10
2022-07-31T13:16:09.301Z,51.80
2022-07-31T13:18:41.450Z,52.40
2022-07-31T13:21:13.558Z,51.60
2022-07-31T13:23:45.710Z,51.40
2022-07-31T13:26:18.765Z,52.60
2022-07-31T13:28:51.522Z,51.20
2022-07-31T13:31:23.860Z,52.20
2022-07-31T13:33:57.119Z,51.60
2022-07-31T13:36:38.797Z,49.90
2022-07-31T13:39:12.351Z,51.30
2022-07-31T13:41:44.491Z,51.90
2022-07-31T13:44:16.780Z,52.00
2022-07-31T13:46:48.988Z,52.10
2022-07-31T13:49:21.341Z,51.10
2022-07-31T13:51:53.716Z,52.60
2022-07-31T13:54:27.510Z,51.60
2022-07-31T13:56:59.602Z,50.70
2022-07-31T13:59:34.009Z,50.80
2022-07-31T14:02:06.149Z,49.30
2022-07-31T14:04:39.206Z,50.50
2022-07-31T14:07:12.883Z,51.90
2022-07-31T14:09:54.664Z,49.40
2022-07-31T14:12:27.590Z,50.00
2022-07-31T14:14:59.771Z,49.60
2022-07-31T14:17:32.248Z,51.20
2022-07-31T14:20:04.789Z,49.60
2022-07-31T14:22:37.467Z,51.90
2022-07-31T14:25:12.171Z,51.30
2022-07-31T14:27:45.959Z,51.20
2022-07-31T14:30:19.848Z,52.70
2022-07-31T14:32:52.767Z,52.80
2022-07-31T14:35:25.958Z,51.50
2022-07-31T14:38:02.021Z,52.50
2022-07-31T14:40:36.431Z,51.70
2022-07-31T14:43:10.332Z,52.10
2022-07-31T14:45:51.300Z,51.30
2022-07-31T14:48:25.379Z,53.10
2022-07-31T14:50:58.312Z,52.30
2022-07-31T14:53:30.399Z,53.00
2022-07-31T14:56:05.237Z,55.00
2022-07-31T14:58:57.507Z,50.30
2022-07-31T15:01:31.251Z,51.70
2022-07-31T15:04:03.675Z,52.10
2022-07-31T15:06:41.705Z,50.90
2022-07-31T15:09:31.450Z,50.60
2022-07-31T15:12:03.712Z,48.90
2022-07-31T15:14:36.196Z,48.60
2022-07-31T15:17:09.604Z,49.30
2022-07-31T15:19:41.903Z,49.40
2022-07-31T15:22:31.657Z,50.50
2022-07-31T15:25:03.926Z,49.00
2022-07-31T15:27:36.760Z,50.80
2022-07-31T15:30:09.573Z,50.40
2022-07-31T15:32:42.315Z,50.60
2022-07-31T15:35:14.775Z,51.00
2022-07-31T15:37:46.944Z,51.40
2022-07-31T15:40:20.433Z,52.00
2022-07-31T15:42:52.662Z,51.70
2022-07-31T15:45:24.886Z,51.80
2022-07-31T15:47:56.970Z,51.30
2022-07-31T15:50:28.974Z,52.20
2022-07-31T15:53:02.661Z,50.60
2022-07-31T15:55:34.813Z,49.70
2022-07-31T15:58:07.219Z,50.20
2022-07-31T16:00:39.608Z,51.50
2022-07-31T16:03:15.443Z,51.30
2022-07-31T16:05:55.962Z,51.40
2022-07-31T16:08:35.630Z,52.40
2022-07-31T16:11:08.209Z,52.10
2022-07-31T16:13:40.412Z,52.50
2022-07-31T16:16:12.677Z,52.50
2022-07-31T16:18:46.238Z,52.50
2022-07-31T16:21:18.326Z,52.40
2022-07-31T16:23:50.429Z,52.20
2022-07-31T16:26:24.728Z,52.50
2022-07-31T16:28:56.879Z,53.20
2022-07-31T16:31:30.097Z,53.20
2022-07-31T16:34:03.437Z,52.80
2022-07-31T16:36:36.112Z,52.90
2022-07-31T16:39:20.014Z,53.00
2022-07-31T16:41:55.333Z,52.60
2022-07-31T16:44:27.681Z,53.70
2022-07-31T16:47:00.545Z,53.40
2022-07-31T16:49:36.746Z,52.80
2022-07-31T16:52:09.348Z,52.90
2022-07-31T16:54:41.980Z,53.30
2022-07-31T16:57:15.282Z,52.40
2022-07-31T16:59:57.195Z,52.70
2022-07-31T17:02:30.192Z,53.50
2022-07-31T17:05:02.392Z,53.30
2022-07-31T17:07:34.795Z,53.80
2022-07-31T17:10:07.700Z,53.80
2022-07-31T17:12:39.994Z,54.00
2022-07-31T17:15:12.459Z,54.50
2022-07-31T17:17:44.565Z,54.80
2022-07-31T17:20:23.267Z,54.70
2022-07-31T17:23:03.407Z,54.60
2022-07-31T17:25:40.703Z,54.50
2022-07-31T17:28:15.676Z,55.00
2022-07-31T17:30:47.951Z,55.60
2022-07-31T17:33:20.101Z,55.50
2022-07-31T17:36:12.338Z,55.60
2022-07-31T17:38:44.583Z,54.80
2022-07-31T17:41:24.882Z,56.00
2022-07-31T17:43:58.105Z,55.20
2022-07-31T17:46:36.432Z,55.60
2022-07-31T17:49:19.572Z,55.40
2022-07-31T17:52:08.246Z,55.60
2022-07-31T17:54:41.326Z,56.00
2022-07-31T17:57:13.726Z,56.10
2022-07-31T17:59:45.821Z,56.00
2022-07-31T18:02:17.913Z,56.20
2022-07-31T18:04:50.049Z,56.30
2022-07-31T18:07:24.292Z,56.50
2022-07-31T18:09:57.293Z,56.40
2022-07-31T18:12:29.741Z,55.90
2022-07-31T18:15:22.010Z,56.20
2022-07-31T18:18:06.557Z,56.10
2022-07-31T18:20:38.949Z,56.50
2022-07-31T18:23:12.219Z,56.30
2022-07-31T18:25:46.456Z,56.40
2022-07-31T18:28:19.097Z,56.70
2022-07-31T18:30:52.242Z,56.60
2022-07-31T18:33:24.377Z,56.60
2022-07-31T18:35:56.451Z,56.50
2022-07-31T18:38:28.546Z,56.70
2022-07-31T18:41:00.624Z,56.70
2022-07-31T18:43:34.236Z,56.40
2022-07-31T18:46:06.814Z,56.50
2022-07-31T18:48:39.054Z,56.60
2022-07-31T18:51:11.392Z,56.60
2022-07-31T18:53:43.778Z,56.70
2022-07-31T18:56:15.977Z,56.80
2022-07-31T18:58:48.224Z,56.90
2022-07-31T19:01:21.172Z,56.70
2022-07-31T19:03:55.154Z,56.40
2022-07-31T19:06:27.513Z,56.50
2022-07-31T19:09:00.879Z,57.00
2022-07-31T19:11:34.475Z,56.50
2022-07-31T19:14:06.636Z,56.40
2022-07-31T19:16:38.799Z,56.50
2022-07-31T19:19:14.210Z,56.40
2022-07-31T19:21:47.524Z,56.40
2022-07-31T19:24:19.776Z,56.20
2022-07-31T19:26:52.662Z,56.30
2022-07-31T19:29:25.866Z,56.40
2022-07-31T19:31:59.405Z,56.30
2022-07-31T19:34:32.410Z,56.40
2022-07-31T19:37:08.423Z,56.60
2022-07-31T19:39:42.198Z,56.40
2022-07-31T19:42:14.562Z,56.60
2022-07-31T19:44:46.982Z,57.00
2022-07-31T19:47:19.899Z,57.00
2022-07-31T19:49:53.283Z,57.00
2022-07-31T19:52:25.531Z,57.20
2022-07-31T19:54:57.762Z,57.20
2022-07-31T19:57:30.004Z,57.70
2022-07-31T20:00:02.501Z,57.50
2022-07-31T20:02:37.153Z,57.60
2022-07-31T20:05:11.568Z,57.70
2022-07-31T20:07:45.241Z,57.80
2022-07-31T20:10:17.567Z,57.80
2022-07-31T20:12:49.795Z,58.00
2022-07-31T20:15:23.040Z,58.20
2022-07-31T20:17:55.326Z,58.20
2022-07-31T20:20:34.603Z,58.40
2022-07-31T20:23:07.069Z,58.40
2022-07-31T20:25:40.140Z,59.20
2022-07-31T20:28:12.429Z,58.80
2022-07-31T20:30:45.193Z,58.90
2022-07-31T20:33:18.322Z,59.00
2022-07-31T20:35:56.337Z,59.10
2022-07-31T20:38:28.482Z,59.20
2022-07-31T20:41:02.649Z,59.30
2022-07-31T20:43:34.935Z,59.10
2022-07-31T20:46:07.305Z,59.70
2022-07-31T20:48:39.722Z,59.90
2022-07-31T20:51:19.208Z,59.90
2022-07-31T20:53:54.813Z,59.90
2022-07-31T20:56:27.595Z,60.40
2022-07-31T20:58:59.724Z,60.30
2022-07-31T21:01:32.073Z,60.20
2022-07-31T21:04:04.198Z,61.00
2022-07-31T21:06:38.679Z,60.90
2022-07-31T21:09:14.285Z,61.10
2022-07-31T21:11:46.875Z,61.70
2022-07-31T21:14:19.197Z,61.30
2022-07-31T21:16:51.253Z,62.00
2022-07-31T21:19:23.544Z,61.70
2022-07-31T21:21:56.102Z,62.60
2022-07-31T21:24:28.385Z,62.30
2022-07-31T21:27:02.826Z,62.40
2022-07-31T21:29:36.778Z,62.70
2022-07-31T21:32:09.598Z,63.40
2022-07-31T21:34:42.732Z,63.40
2022-07-31T21:37:16.310Z,64.00
2022-07-31T21:39:49.015Z,63.40
2022-07-31T21:42:21.788Z,64.30
2022-07-31T21:44:56.849Z,63.90
2022-07-31T21:47:52.425Z,64.30
2022-07-31T21:50:28.680Z,64.10
2022-07-31T21:53:01.428Z,65.10
2022-07-31T21:55:33.435Z,64.40
2022-07-31T21:58:07.385Z,64.80
2022-07-31T22:00:40.113Z,64.60
2022-07-31T22:03:12.477Z,65.40
2022-07-31T22:06:02.894Z,64.70
2022-07-31T22:08:54.706Z,65.90
2022-07-31T22:11:26.898Z,67.30
2022-07-31T22:13:59.226Z,65.90
2022-07-31T22:16:31.277Z,66.10
2022-07-31T22:19:04.599Z,66.30
2022-07-31T22:21:37.640Z,66.80
2022-07-31T22:24:10.143Z,67.10
2022-07-31T22:27:02.837Z,67.50
2022-07-31T22:29:55.660Z,68.10
2022-07-31T22:32:28.174Z,68.10
2022-07-31T22:35:00.697Z,67.80
2022-07-31T22:37:33.290Z,68.70
2022-07-31T22:40:07.453Z,68.40
2022-07-31T22:42:40.278Z,70.10
2022-07-31T22:45:13.402Z,68.80
2022-07-31T22:47:47.669Z,69.70
2022-07-31T22:50:19.951Z,69.70
2022-07-31T22:52:53.265Z,70.20
2022-07-31T22:55:25.334Z,69.30
2022-07-31T22:57:57.335Z,69.20
2022-07-31T23:00:29.748Z,70.50
2022-07-31T23:03:01.834Z,70.10
2022-07-31T23:06:28.078Z,70.70
2022-07-31T23:08:26.128Z,70.20
2022-07-31T23:10:58.165Z,70.10
2022-07-31T23:13:30.214Z,71.30
2022-07-31T23:16:02.323Z,70.60
2022-07-31T23:18:34.559Z,70.40
2022-07-31T23:21:08.384Z,70.50
2022-07-31T23:23:42.011Z,70.60
2022-07-31T23:26:26.190Z,71.20
2022-07-31T23:28:58.267Z,71.40
2022-07-31T23:31:30.308Z,72.20
2022-07-31T23:34:02.377Z,71.40
2022-07-31T23:36:34.879Z,71.80
2022-07-31T23:39:07.153Z,72.10
2022-07-31T23:42:00.924Z,71.70
2022-07-31T23:44:52.770Z,72.00
2022-07-31T23:47:24.740Z,72.80
2022-07-31T23:50:12.833Z,73.40
2022-07-31T23:52:46.098Z,73.10
2022-07-31T23:55:18.043Z,72.40
2022-07-31T23:57:50.864Z,72.60
